sensor_id;sensor_type;location;lat;lon;timestamp;temperature;humidity
1524;DHT22;755;53.658;10.118;2024-02-28T00:07:17;4.20;1.00
1524;DHT22;755;53.658;10.118;2024-02-28T00:17:21;4.00;1.00
1524;DHT22;755;53.658;10.118;2024-02-28T00:27:23;4.10;1.00
1524;DHT22;755;53.658;10.118;2024-02-28T00:37:26;4.00;99.90
1524;DHT22;755;53.658;10.118;2024-02-28T00:47:28;3.90;99.90
1524;DHT22;755;53.658;10.118;2024-02-28T00:57:32;3.70;1.00
1524;DHT22;755;53.658;10.118;2024-02-28T01:07:34;3.60;99.90
1524;DHT22;755;53.658;10.118;2024-02-28T01:17:37;3.60;1.00
1524;DHT22;755;53.658;10.118;2024-02-28T01:27:39;3.50;1.00
1524;DHT22;755;53.658;10.118;2024-02-28T01:37:43;3.60;99.90
1524;DHT22;755;53.658;10.118;2024-02-28T01:47:45;3.60;99.90
1524;DHT22;755;53.658;10.118;2024-02-28T01:57:48;3.60;99.90
1524;DHT22;755;53.658;10.118;2024-02-28T02:07:50;3.60;67.50
1524;DHT22;755;53.658;10.118;2024-02-28T02:17:54;3.60;1.00
1524;DHT22;755;53.658;10.118;2024-02-28T02:27:58;3.60;1.00
1524;DHT22;755;53.658;10.118;2024-02-28T02:38:00;3.50;28.20
1524;DHT22;755;53.658;10.118;2024-02-28T02:48:04;3.40;99.90
1524;DHT22;755;53.658;10.118;2024-02-28T02:58:06;3.30;99.90
1524;DHT22;755;53.658;10.118;2024-02-28T03:08:10;3.30;1.00
1524;DHT22;755;53.658;10.118;2024-02-28T03:18:13;3.20;1.00
1524;DHT22;755;53.658;10.118;2024-02-28T03:28:17;3.20;1.00
1524;DHT22;755;53.658;10.118;2024-02-28T03:38:19;3.20;1.00
1524;DHT22;755;53.658;10.118;2024-02-28T03:48:22;3.10;1.00
1524;DHT22;755;53.658;10.118;2024-02-28T03:58:24;3.10;1.00
1524;DHT22;755;53.658;10.118;2024-02-28T04:08:28;3.10;1.00
1524;DHT22;755;53.658;10.118;2024-02-28T04:18:33;3.10;1.00
1524;DHT22;755;53.658;10.118;2024-02-28T04:28:36;3.20;1.00
1524;DHT22;755;53.658;10.118;2024-02-28T04:38:38;3.20;1.00
1524;DHT22;755;53.658;10.118;2024-02-28T04:48:41;3.30;99.90
1524;DHT22;755;53.658;10.118;2024-02-28T04:58:43;3.20;1.00
1524;DHT22;755;53.658;10.118;2024-02-28T05:08:47;3.20;16.80
1524;DHT22;755;53.658;10.118;2024-02-28T05:18:49;3.20;99.90
1524;DHT22;755;53.658;10.118;2024-02-28T05:28:52;3.10;1.00
1524;DHT22;755;53.658;10.118;2024-02-28T05:38:55;3.20;99.90
1524;DHT22;755;53.658;10.118;2024-02-28T05:48:59;3.20;1.00
1524;DHT22;755;53.658;10.118;2024-02-28T05:59:01;3.20;1.00
1524;DHT22;755;53.658;10.118;2024-02-28T06:09:04;3.30;1.00
1524;DHT22;755;53.658;10.118;2024-02-28T06:19:06;3.30;1.00
1524;DHT22;755;53.658;10.118;2024-02-28T06:29:10;3.30;99.90
1524;DHT22;755;53.658;10.118;2024-02-28T06:39:12;3.20;1.00
1524;DHT22;755;53.658;10.118;2024-02-28T06:49:15;3.30;1.00
1524;DHT22;755;53.658;10.118;2024-02-28T06:59:18;3.30;1.00
1524;DHT22;755;53.658;10.118;2024-02-28T07:09:21;3.20;1.00
1524;DHT22;755;53.658;10.118;2024-02-28T07:19:26;3.30;1.00
1524;DHT22;755;53.658;10.118;2024-02-28T07:29:29;3.40;1.00
1524;DHT22;755;53.658;10.118;2024-02-28T07:39:31;3.50;1.00
1524;DHT22;755;53.658;10.118;2024-02-28T07:49:35;3.60;1.00
1524;DHT22;755;53.658;10.118;2024-02-28T07:59:41;3.70;1.00
1524;DHT22;755;53.658;10.118;2024-02-28T08:09:44;3.80;1.00
1524;DHT22;755;53.658;10.118;2024-02-28T08:19:46;4.00;1.00
1524;DHT22;755;53.658;10.118;2024-02-28T08:29:50;4.10;1.00
1524;DHT22;755;53.658;10.118;2024-02-28T08:39:52;4.20;99.90
1524;DHT22;755;53.658;10.118;2024-02-28T08:49:57;4.70;1.00
1524;DHT22;755;53.658;10.118;2024-02-28T08:59:59;4.90;99.90
1524;DHT22;755;53.658;10.118;2024-02-28T09:10:03;4.90;1.00
1524;DHT22;755;53.658;10.118;2024-02-28T09:20:07;5.70;1.00
1524;DHT22;755;53.658;10.118;2024-02-28T09:30:11;6.60;1.00
1524;DHT22;755;53.658;10.118;2024-02-28T09:40:13;6.20;1.00
1524;DHT22;755;53.658;10.118;2024-02-28T09:50:18;6.10;99.90
1524;DHT22;755;53.658;10.118;2024-02-28T10:00:21;6.30;13.40
1524;DHT22;755;53.658;10.118;2024-02-28T10:10:24;6.90;53.90
1524;DHT22;755;53.658;10.118;2024-02-28T10:20:30;7.30;1.00
1524;DHT22;755;53.658;10.118;2024-02-28T10:30:38;7.50;1.00
1524;DHT22;755;53.658;10.118;2024-02-28T10:40:41;7.40;1.00
1524;DHT22;755;53.658;10.118;2024-02-28T10:50:46;7.70;1.00
1524;DHT22;755;53.658;10.118;2024-02-28T11:00:48;8.00;1.00
1524;DHT22;755;53.658;10.118;2024-02-28T11:10:57;7.90;1.00
1524;DHT22;755;53.658;10.118;2024-02-28T11:20:59;7.60;1.00
1524;DHT22;755;53.658;10.118;2024-02-28T11:31:03;7.80;1.00
1524;DHT22;755;53.658;10.118;2024-02-28T11:41:05;8.10;1.00
1524;DHT22;755;53.658;10.118;2024-02-28T11:51:09;8.30;1.00
1524;DHT22;755;53.658;10.118;2024-02-28T12:01:11;8.00;1.90
1524;DHT22;755;53.658;10.118;2024-02-28T12:11:14;8.00;99.90
1524;DHT22;755;53.658;10.118;2024-02-28T12:21:16;8.10;69.00
1524;DHT22;755;53.658;10.118;2024-02-28T12:31:19;8.20;99.90
1524;DHT22;755;53.658;10.118;2024-02-28T12:41:22;8.10;99.90
1524;DHT22;755;53.658;10.118;2024-02-28T12:51:38;8.10;1.00
1524;DHT22;755;53.658;10.118;2024-02-28T13:01:40;8.30;99.90
1524;DHT22;755;53.658;10.118;2024-02-28T13:11:45;8.20;99.90
1524;DHT22;755;53.658;10.118;2024-02-28T13:21:48;8.00;1.00
1524;DHT22;755;53.658;10.118;2024-02-28T13:31:51;7.80;99.90
1524;DHT22;755;53.658;10.118;2024-02-28T13:41:53;8.00;99.90
1524;DHT22;755;53.658;10.118;2024-02-28T13:51:57;7.70;1.00
1524;DHT22;755;53.658;10.118;2024-02-28T14:01:59;7.60;99.90
1524;DHT22;755;53.658;10.118;2024-02-28T14:12:03;7.70;1.00
1524;DHT22;755;53.658;10.118;2024-02-28T14:22:05;7.90;1.00
1524;DHT22;755;53.658;10.118;2024-02-28T14:32:11;7.80;99.90
1524;DHT22;755;53.658;10.118;2024-02-28T14:42:16;7.90;1.00
1524;DHT22;755;53.658;10.118;2024-02-28T14:52:20;7.80;1.00
1524;DHT22;755;53.658;10.118;2024-02-28T15:02:23;7.70;92.90
1524;DHT22;755;53.658;10.118;2024-02-28T15:12:40;7.50;99.90
1524;DHT22;755;53.658;10.118;2024-02-28T15:22:42;7.50;99.90
1524;DHT22;755;53.658;10.118;2024-02-28T15:32:47;7.50;99.90
1524;DHT22;755;53.658;10.118;2024-02-28T15:42:49;7.50;99.90
1524;DHT22;755;53.658;10.118;2024-02-28T15:52:52;7.50;99.90
1524;DHT22;755;53.658;10.118;2024-02-28T16:02:54;7.50;99.90
1524;DHT22;755;53.658;10.118;2024-02-28T16:12:58;7.60;99.90
1524;DHT22;755;53.658;10.118;2024-02-28T16:23:03;7.40;10.70
1524;DHT22;755;53.658;10.118;2024-02-28T16:33:07;7.40;99.90
1524;DHT22;755;53.658;10.118;2024-02-28T16:43:10;7.40;1.00
1524;DHT22;755;53.658;10.118;2024-02-28T16:53:13;7.30;1.00
1524;DHT22;755;53.658;10.118;2024-02-28T17:03:15;7.30;1.00
1524;DHT22;755;53.658;10.118;2024-02-28T17:13:19;7.20;1.00
1524;DHT22;755;53.658;10.118;2024-02-28T17:23:21;7.00;1.00
1524;DHT22;755;53.658;10.118;2024-02-28T17:33:26;7.00;1.00
1524;DHT22;755;53.658;10.118;2024-02-28T17:43:28;6.70;99.90
1524;DHT22;755;53.658;10.118;2024-02-28T17:53:31;6.60;99.90
1524;DHT22;755;53.658;10.118;2024-02-28T18:03:33;6.70;99.90
1524;DHT22;755;53.658;10.118;2024-02-28T18:13:36;6.70;99.90
1524;DHT22;755;53.658;10.118;2024-02-28T18:23:38;6.70;99.90
1524;DHT22;755;53.658;10.118;2024-02-28T18:33:41;6.60;99.90
1524;DHT22;755;53.658;10.118;2024-02-28T18:43:43;6.60;99.90
1524;DHT22;755;53.658;10.118;2024-02-28T18:53:47;6.50;99.90
1524;DHT22;755;53.658;10.118;2024-02-28T19:03:49;6.40;99.90
1524;DHT22;755;53.658;10.118;2024-02-28T19:13:54;6.40;99.90
1524;DHT22;755;53.658;10.118;2024-02-28T19:23:57;6.30;99.90
1524;DHT22;755;53.658;10.118;2024-02-28T19:34:00;6.30;99.90
1524;DHT22;755;53.658;10.118;2024-02-28T19:44:02;6.40;99.90
1524;DHT22;755;53.658;10.118;2024-02-28T19:54:06;6.30;99.90
1524;DHT22;755;53.658;10.118;2024-02-28T20:04:08;6.40;99.90
1524;DHT22;755;53.658;10.118;2024-02-28T20:14:11;6.30;99.90
1524;DHT22;755;53.658;10.118;2024-02-28T20:24:13;6.30;99.90
1524;DHT22;755;53.658;10.118;2024-02-28T20:34:17;6.30;99.90
1524;DHT22;755;53.658;10.118;2024-02-28T20:44:22;6.20;99.90
1524;DHT22;755;53.658;10.118;2024-02-28T20:54:29;6.20;99.90
1524;DHT22;755;53.658;10.118;2024-02-28T21:04:34;6.20;99.90
1524;DHT22;755;53.658;10.118;2024-02-28T21:14:37;6.00;99.90
1524;DHT22;755;53.658;10.118;2024-02-28T21:24:39;5.90;99.90
1524;DHT22;755;53.658;10.118;2024-02-28T21:34:44;5.70;99.90
1524;DHT22;755;53.658;10.118;2024-02-28T21:44:46;5.50;99.90
1524;DHT22;755;53.658;10.118;2024-02-28T21:54:50;5.30;99.90
1524;DHT22;755;53.658;10.118;2024-02-28T22:04:52;5.40;99.90
1524;DHT22;755;53.658;10.118;2024-02-28T22:14:55;5.20;99.90
1524;DHT22;755;53.658;10.118;2024-02-28T22:24:58;5.10;99.90
1524;DHT22;755;53.658;10.118;2024-02-28T22:35:01;5.00;99.90
1524;DHT22;755;53.658;10.118;2024-02-28T22:45:04;5.00;99.90
1524;DHT22;755;53.658;10.118;2024-02-28T22:55:08;5.00;99.90
1524;DHT22;755;53.658;10.118;2024-02-28T23:05:10;4.90;99.90
1524;DHT22;755;53.658;10.118;2024-02-28T23:15:13;4.90;99.90
1524;DHT22;755;53.658;10.118;2024-02-28T23:25:16;4.90;99.90
1524;DHT22;755;53.658;10.118;2024-02-28T23:35:19;4.80;99.90
1524;DHT22;755;53.658;10.118;2024-02-28T23:45:21;4.90;99.90
1524;DHT22;755;53.658;10.118;2024-02-28T23:55:24;4.90;99.90
